MV Sea Wolf — WCW6738 — position and weather

sailwx.info

Track history (hours):
 
Tides and Currents Weather Stations Pressure Air Temp Water Temp Dewpoint Dewpoint Depression Visibility Wind Speed Wind Dir Waves Ship Positions

MV Sea Wolf

Owner: SEA WOLF MARINE TOWING & TRANSPORTATION, Bayonne, NJ. More information available from US FCC via Universal Licensing System and Coast Guard Vessel Documentation Center.

Last reported at 2017-Mar-24 07:30 UTC. Time now 2017-Mar-24 08:04 UTC.
Position N 39°38' W 074°08'.

Length 66 m; draft 10 m.

MMSI: 367002350.

Date/timePositionNaut miles runAvg speedWind from/ knotsBaromVisibWave heightAir tempDewpointWater temp
2017-Mar-24 07:30N 39°38' W 074°08'4 3.6
2017-Mar-24 06:20N 39°41' W 074°05'3 3.7
2017-Mar-24 05:33N 39°44' W 074°03'5 3.8
2017-Mar-24 04:19N 39°49' W 074°03'16 4.0
2017-Mar-24 00:21N 40°04' W 074°00'3 3.9
2017-Mar-23 23:31N 40°08' W 073°60'21 4.2
2017-Mar-23 18:33N 40°27' W 073°50'5 0.1
2017-Mar-21 15:21N 40°32' W 073°52'7 8.3
2017-Mar-21 14:33N 40°32' W 074°00'8 8.1
2017-Mar-21 13:33N 40°39' W 074°07'0 0.0
2017-Mar-21 12:33N 40°39' W 074°07'0 0.0
2017-Mar-21 11:33N 40°39' W 074°07'0 0.0
2017-Mar-21 10:33N 40°39' W 074°07'2 2.2
2017-Mar-21 09:34N 40°40' W 074°04'1 1.4
2017-Mar-21 08:33N 40°41' W 074°05'0 0.0
2017-Mar-21 07:34N 40°41' W 074°05'0 0.0
2017-Mar-21 06:34N 40°41' W 074°05'0 0.0
2017-Mar-21 05:34N 40°41' W 074°05'0 0.0
2017-Mar-21 04:34N 40°41' W 074°05'0 0.0
2017-Mar-21 03:34N 40°41' W 074°05'2 1.7
2017-Mar-21 02:33N 40°40' W 074°03'8 8.1
2017-Mar-21 01:34N 40°32' W 074°00'  
Track history (hours):
 
Tides and Currents Weather Stations Pressure Air Temp Water Temp Dewpoint Dewpoint Depression Visibility Wind Speed Wind Dir Waves Ship Positions

MV Sea Wolf

Owner: SEA WOLF MARINE TOWING & TRANSPORTATION, Bayonne, NJ. More information available from US FCC via Universal Licensing System and Coast Guard Vessel Documentation Center.

Last reported at 2017-Mar-24 07:30 UTC. Time now 2017-Mar-24 08:05 UTC.
Position N 39°38' W 074°08'.

Length 66 m; draft 10 m.

MMSI: 367002350.

Date/timePositionNaut miles runAvg speedWind from/ knotsBaromVisibWave heightAir tempDewpointWater temp
2017-Mar-24 07:30N 39°38' W 074°08'4 3.6
2017-Mar-24 06:20N 39°41' W 074°05'3 3.7
2017-Mar-24 05:33N 39°44' W 074°03'5 3.8
2017-Mar-24 04:19N 39°49' W 074°03'16 4.0
2017-Mar-24 00:21N 40°04' W 074°00'3 3.9
2017-Mar-23 23:31N 40°08' W 073°60'21 4.2
2017-Mar-23 18:33N 40°27' W 073°50'5 0.1
2017-Mar-21 15:21N 40°32' W 073°52'7 8.3
2017-Mar-21 14:33N 40°32' W 074°00'8 8.1
2017-Mar-21 13:33N 40°39' W 074°07'0 0.0
2017-Mar-21 12:33N 40°39' W 074°07'0 0.0
2017-Mar-21 11:33N 40°39' W 074°07'0 0.0
2017-Mar-21 10:33N 40°39' W 074°07'2 2.2
2017-Mar-21 09:34N 40°40' W 074°04'1 1.4
2017-Mar-21 08:33N 40°41' W 074°05'0 0.0
2017-Mar-21 07:34N 40°41' W 074°05'0 0.0
2017-Mar-21 06:34N 40°41' W 074°05'0 0.0
2017-Mar-21 05:34N 40°41' W 074°05'0 0.0
2017-Mar-21 04:34N 40°41' W 074°05'0 0.0
2017-Mar-21 03:34N 40°41' W 074°05'2 1.7
2017-Mar-21 02:33N 40°40' W 074°03'8 8.1
2017-Mar-21 01:34N 40°32' W 074°00'  

Dump ship's entire track history